createdAt,value
2022-11-14T00:01:12.739Z,19.27
2022-11-14T00:03:39.949Z,22.65
2022-11-14T00:06:07.778Z,24.00
2022-11-14T00:08:35.449Z,22.50
2022-11-14T00:11:02.640Z,22.50
2022-11-14T00:13:29.866Z,21.05
2022-11-14T00:15:56.804Z,20.42
2022-11-14T00:18:24.168Z,18.45
2022-11-14T00:20:52.679Z,18.35
2022-11-14T00:23:20.923Z,18.85
2022-11-14T00:25:48.643Z,20.60
2022-11-14T00:28:16.293Z,17.40
2022-11-14T00:30:47.643Z,19.58
2022-11-14T00:33:19.876Z,17.85
2022-11-14T00:35:55.513Z,17.88
2022-11-14T00:38:23.209Z,18.23
2022-11-14T00:40:50.343Z,17.42
2022-11-14T00:43:17.637Z,18.17
2022-11-14T00:45:45.873Z,19.13
2022-11-14T00:48:12.785Z,17.17
2022-11-14T00:50:39.958Z,19.45
2022-11-14T00:53:06.997Z,18.38
2022-11-14T00:55:33.851Z,17.23
2022-11-14T00:58:00.697Z,17.92
2022-11-14T01:00:28.147Z,16.98
2022-11-14T01:02:58.418Z,15.70
2022-11-14T01:05:26.362Z,15.68
2022-11-14T01:07:53.592Z,15.88
2022-11-14T01:10:21.561Z,15.82
2022-11-14T01:12:48.560Z,15.57
2022-11-14T01:15:15.567Z,16.23
2022-11-14T01:17:42.976Z,17.58
2022-11-14T01:20:10.117Z,18.20
2022-11-14T01:22:36.864Z,19.27
2022-11-14T01:25:04.044Z,18.15
2022-11-14T01:27:31.939Z,17.70
2022-11-14T01:29:58.785Z,18.33
2022-11-14T01:32:27.159Z,18.52
2022-11-14T01:34:54.362Z,22.30
2022-11-14T01:37:21.846Z,22.38
2022-11-14T01:39:48.969Z,19.45
2022-11-14T01:42:17.608Z,24.17
2022-11-14T01:44:53.047Z,19.80
2022-11-14T01:47:27.289Z,19.25
2022-11-14T01:49:58.893Z,21.95
2022-11-14T01:52:28.936Z,22.98
2022-11-14T01:55:00.011Z,21.30
2022-11-14T01:57:42.317Z,19.48
2022-11-14T02:00:12.167Z,21.50
2022-11-14T02:02:39.571Z,21.73
2022-11-14T02:05:10.491Z,22.08
2022-11-14T02:07:40.089Z,18.95
2022-11-14T02:10:10.829Z,18.70
2022-11-14T02:12:38.576Z,20.90
2022-11-14T02:15:06.063Z,19.33
2022-11-14T02:17:33.078Z,21.08
2022-11-14T02:20:12.622Z,20.73
2022-11-14T02:22:42.196Z,20.92
2022-11-14T02:25:11.055Z,21.85
2022-11-14T02:27:39.322Z,19.38
2022-11-14T02:30:09.865Z,18.35
2022-11-14T02:35:23.627Z,18.52
2022-11-14T02:37:50.516Z,18.67
2022-11-14T02:40:17.671Z,18.42
2022-11-14T02:42:44.814Z,16.15
2022-11-14T02:45:12.454Z,16.92
2022-11-14T02:47:39.281Z,16.35
2022-11-14T02:50:06.372Z,17.67
2022-11-14T02:52:33.230Z,18.63
2022-11-14T02:55:00.196Z,16.35
2022-11-14T02:57:27.179Z,15.50
2022-11-14T02:59:57.316Z,16.02
2022-11-14T03:02:24.080Z,16.70
2022-11-14T03:04:51.133Z,15.75
2022-11-14T03:07:18.633Z,15.68
2022-11-14T03:09:45.807Z,16.30
2022-11-14T03:12:16.120Z,14.43
2022-11-14T03:14:44.095Z,14.13
2022-11-14T03:17:11.670Z,13.10
2022-11-14T03:19:42.021Z,12.38
2022-11-14T03:22:09.955Z,12.25
2022-11-14T03:24:37.113Z,11.13
2022-11-14T03:27:04.635Z,12.20
2022-11-14T03:29:31.940Z,12.73
2022-11-14T03:31:59.681Z,12.55
2022-11-14T03:34:26.726Z,12.00
2022-11-14T03:36:53.794Z,11.48
2022-11-14T03:39:21.764Z,11.48
2022-11-14T03:41:49.117Z,11.10
2022-11-14T03:44:16.099Z,10.85
2022-11-14T03:46:43.436Z,11.55
2022-11-14T03:49:11.189Z,12.70
2022-11-14T03:51:38.564Z,10.25
2022-11-14T03:54:06.331Z,10.60
2022-11-14T03:56:33.709Z,9.77
2022-11-14T03:59:00.999Z,10.70
2022-11-14T04:01:29.447Z,10.45
2022-11-14T04:03:58.657Z,11.98
2022-11-14T04:06:29.220Z,9.93
2022-11-14T04:08:56.986Z,10.20
2022-11-14T04:11:24.419Z,10.90
2022-11-14T04:13:51.952Z,10.82
2022-11-14T04:16:26.745Z,10.27
2022-11-14T04:18:54.050Z,9.80
2022-11-14T04:21:21.597Z,9.75
2022-11-14T04:23:49.186Z,9.90
2022-11-14T04:26:19.004Z,9.55
2022-11-14T04:28:46.394Z,10.85
2022-11-14T04:31:13.939Z,9.55
2022-11-14T04:33:42.179Z,11.77
2022-11-14T04:36:09.557Z,9.55
2022-11-14T04:38:37.005Z,9.73
2022-11-14T04:41:07.660Z,9.80
2022-11-14T04:43:35.195Z,11.27
2022-11-14T04:46:02.351Z,11.25
2022-11-14T04:48:29.619Z,11.43
2022-11-14T04:51:00.615Z,11.65
2022-11-14T04:53:27.796Z,10.65
2022-11-14T04:55:54.818Z,11.85
2022-11-14T04:58:22.015Z,12.45
2022-11-14T05:00:49.251Z,11.75
2022-11-14T05:03:20.064Z,14.38
2022-11-14T05:05:47.430Z,13.45
2022-11-14T05:08:14.633Z,13.52
2022-11-14T05:10:45.541Z,13.10
2022-11-14T05:13:13.943Z,12.98
2022-11-14T05:15:44.508Z,13.27
2022-11-14T05:18:12.133Z,12.77
2022-11-14T05:20:39.417Z,16.02
2022-11-14T05:23:06.816Z,14.60
2022-11-14T05:25:34.029Z,13.48
2022-11-14T05:28:02.432Z,13.93
2022-11-14T05:30:29.675Z,12.23
2022-11-14T05:32:56.982Z,13.00
2022-11-14T05:35:24.202Z,15.20
2022-11-14T05:37:52.964Z,12.55
2022-11-14T05:40:22.894Z,14.73
2022-11-14T05:42:49.898Z,13.65
2022-11-14T05:45:16.650Z,16.58
2022-11-14T05:47:43.510Z,14.40
2022-11-14T05:50:10.694Z,16.77
2022-11-14T05:52:37.437Z,18.63
2022-11-14T05:55:04.512Z,13.70
2022-11-14T05:57:31.320Z,14.70
2022-11-14T05:59:59.828Z,14.52
2022-11-14T06:02:26.648Z,14.77
2022-11-14T06:04:53.441Z,16.35
2022-11-14T06:07:20.757Z,15.50
2022-11-14T06:09:47.786Z,17.35
2022-11-14T06:12:15.050Z,15.68
2022-11-14T06:14:41.880Z,17.88
2022-11-14T06:17:08.750Z,15.10
2022-11-14T06:19:35.613Z,15.05
2022-11-14T06:22:05.630Z,15.95
2022-11-14T06:24:32.850Z,14.45
2022-11-14T06:27:05.480Z,16.08
2022-11-14T06:29:35.505Z,15.70
2022-11-14T06:32:03.116Z,14.68
2022-11-14T06:34:30.140Z,14.02
2022-11-14T06:36:57.238Z,15.52
2022-11-14T06:39:24.756Z,14.93
2022-11-14T06:41:51.801Z,16.63
2022-11-14T06:44:19.255Z,15.32
2022-11-14T06:46:46.136Z,15.05
2022-11-14T06:49:24.985Z,16.25
2022-11-14T06:51:52.710Z,14.93
2022-11-14T06:54:20.036Z,16.23
2022-11-14T06:56:47.511Z,17.33
2022-11-14T06:59:24.102Z,15.85
2022-11-14T07:01:52.993Z,15.73
2022-11-14T07:04:19.832Z,17.48
2022-11-14T07:06:47.134Z,21.77
2022-11-14T07:09:14.135Z,19.45
2022-11-14T07:11:42.139Z,18.55
2022-11-14T07:14:10.023Z,18.90
2022-11-14T07:16:38.820Z,35.38
2022-11-14T07:19:07.761Z,22.70
2022-11-14T07:21:35.546Z,16.52
2022-11-14T07:24:02.867Z,15.32
2022-11-14T07:26:30.051Z,15.73
2022-11-14T07:29:02.037Z,16.88
2022-11-14T07:31:30.234Z,15.05
2022-11-14T07:33:57.297Z,15.00
2022-11-14T07:36:24.551Z,15.88
2022-11-14T07:38:52.968Z,16.63
2022-11-14T07:41:23.420Z,16.48
2022-11-14T07:43:50.706Z,19.02
2022-11-14T07:46:21.352Z,21.95
2022-11-14T07:48:48.705Z,23.48
2022-11-14T07:51:18.992Z,23.58
2022-11-14T07:53:46.215Z,23.63
2022-11-14T07:56:13.540Z,19.38
2022-11-14T07:58:42.249Z,18.10
2022-11-14T08:01:12.205Z,18.65
2022-11-14T08:03:45.086Z,19.55
2022-11-14T08:06:15.459Z,20.27
2022-11-14T08:08:42.692Z,20.40
2022-11-14T08:11:09.766Z,20.38
2022-11-14T08:13:36.685Z,18.20
2022-11-14T08:16:12.871Z,18.38
2022-11-14T08:18:40.920Z,20.77
2022-11-14T08:21:08.167Z,36.92
2022-11-14T08:23:35.272Z,29.85
2022-11-14T08:26:02.196Z,18.15
2022-11-14T08:28:29.697Z,15.68
2022-11-14T08:31:01.729Z,16.48
2022-11-14T08:33:29.012Z,16.52
2022-11-14T08:35:56.196Z,16.30
2022-11-14T08:38:23.082Z,15.02
2022-11-14T08:40:50.159Z,16.05
2022-11-14T08:43:17.243Z,18.50
2022-11-14T08:45:44.189Z,18.58
2022-11-14T08:48:11.745Z,16.15
2022-11-14T08:50:38.818Z,17.23
2022-11-14T08:53:05.678Z,17.08
2022-11-14T08:55:32.742Z,22.45
2022-11-14T08:57:59.731Z,18.55
2022-11-14T09:00:27.605Z,22.10
2022-11-14T09:02:54.519Z,19.38
2022-11-14T09:05:22.188Z,21.38
2022-11-14T09:07:48.989Z,18.65
2022-11-14T09:10:16.124Z,15.70
2022-11-14T09:12:42.926Z,15.50
2022-11-14T09:15:09.914Z,14.18
2022-11-14T09:17:36.680Z,13.75
2022-11-14T09:20:03.852Z,14.38
2022-11-14T09:22:31.511Z,14.98
2022-11-14T09:24:58.334Z,14.57
2022-11-14T09:27:27.343Z,14.30
2022-11-14T09:29:54.115Z,14.23
2022-11-14T09:32:21.193Z,11.02
2022-11-14T09:34:48.229Z,12.95
2022-11-14T09:37:15.381Z,14.10
2022-11-14T09:39:42.640Z,14.15
2022-11-14T09:42:34.370Z,14.18
2022-11-14T09:45:04.181Z,13.05
2022-11-14T09:47:40.415Z,15.15
2022-11-14T09:50:28.811Z,13.93
2022-11-14T09:53:05.187Z,13.60
2022-11-14T09:55:37.060Z,16.27
2022-11-14T09:58:06.591Z,16.02
2022-11-14T10:00:53.243Z,17.10
2022-11-14T10:03:45.334Z,14.82
2022-11-14T10:06:26.863Z,17.58
2022-11-14T10:09:30.499Z,18.30
2022-11-14T10:12:25.317Z,21.85
2022-11-14T10:15:02.622Z,21.05
2022-11-14T10:17:57.909Z,18.23
2022-11-14T10:20:47.645Z,13.48
2022-11-14T10:23:23.366Z,17.85
2022-11-14T10:26:25.370Z,18.70
2022-11-14T10:29:23.228Z,19.65
2022-11-14T10:32:11.839Z,18.02
2022-11-14T10:34:47.731Z,18.27
2022-11-14T10:37:50.985Z,15.93
2022-11-14T10:40:29.167Z,16.27
2022-11-14T10:43:17.912Z,17.45
2022-11-14T10:46:19.904Z,18.40
2022-11-14T10:48:49.543Z,20.13
2022-11-14T10:51:34.998Z,18.77
2022-11-14T10:54:17.595Z,18.73
2022-11-14T10:56:52.248Z,16.02
2022-11-14T10:59:19.751Z,19.42
2022-11-14T11:01:56.001Z,19.55
2022-11-14T11:04:39.086Z,19.75
2022-11-14T11:07:08.641Z,19.70
2022-11-14T11:09:58.297Z,16.15
2022-11-14T11:12:43.774Z,19.27
2022-11-14T11:15:31.800Z,18.90
2022-11-14T11:18:23.597Z,16.92
2022-11-14T11:21:14.924Z,19.77
2022-11-14T11:23:49.434Z,20.67
2022-11-14T11:26:26.503Z,18.77
2022-11-14T11:29:17.700Z,20.17
2022-11-14T11:31:51.957Z,16.70
2022-11-14T11:34:29.314Z,18.05
2022-11-14T11:37:14.515Z,19.88
2022-11-14T11:39:46.416Z,18.63
2022-11-14T11:42:22.955Z,19.02
2022-11-14T11:44:55.570Z,20.05
2022-11-14T11:47:22.769Z,17.95
2022-11-14T11:49:54.230Z,19.52
2022-11-14T11:52:43.499Z,18.13
2022-11-14T11:55:13.136Z,21.23
2022-11-14T11:57:45.459Z,16.90
2022-11-14T12:00:16.694Z,20.25
2022-11-14T12:02:50.172Z,19.35
2022-11-14T12:05:36.661Z,23.88
2022-11-14T12:08:17.167Z,20.77
2022-11-14T12:10:47.705Z,17.42
2022-11-14T12:13:59.402Z,20.10
2022-11-14T12:16:56.861Z,21.08
2022-11-14T12:19:26.406Z,21.08
2022-11-14T12:22:11.938Z,19.38
2022-11-14T12:24:47.493Z,16.65
2022-11-14T12:27:53.311Z,20.20
2022-11-14T12:30:22.772Z,20.67
2022-11-14T12:32:58.819Z,19.52
2022-11-14T12:35:34.563Z,21.85
2022-11-14T12:38:05.196Z,20.55
2022-11-14T12:40:49.500Z,21.13
2022-11-14T12:43:36.097Z,20.23
2022-11-14T12:46:11.524Z,20.17
2022-11-14T12:48:47.766Z,20.20
2022-11-14T12:51:30.169Z,22.05
2022-11-14T12:53:58.239Z,20.60
2022-11-14T12:56:31.115Z,20.88
2022-11-14T12:59:35.374Z,16.85
2022-11-14T13:02:47.051Z,19.13
2022-11-14T13:05:22.389Z,17.63
2022-11-14T13:08:06.021Z,19.95
2022-11-14T13:10:38.874Z,19.55
2022-11-14T13:13:33.142Z,20.48
2022-11-14T13:16:21.274Z,20.00
2022-11-14T13:19:13.240Z,18.17
2022-11-14T13:22:12.104Z,18.50
2022-11-14T13:25:00.421Z,20.05
2022-11-14T13:27:52.686Z,19.88
2022-11-14T13:30:19.903Z,19.48
2022-11-14T13:32:46.961Z,19.08
2022-11-14T13:35:35.818Z,20.50
2022-11-14T13:38:21.554Z,19.73
2022-11-14T13:41:23.885Z,18.50
2022-11-14T13:44:25.095Z,18.98
2022-11-14T13:47:01.330Z,19.08
2022-11-14T13:49:56.662Z,19.52
2022-11-14T13:52:28.281Z,18.05
2022-11-14T13:54:55.357Z,20.05
2022-11-14T13:57:50.114Z,18.00
2022-11-14T14:00:21.162Z,18.15
2022-11-14T14:03:04.052Z,18.88
2022-11-14T14:05:43.458Z,18.83
2022-11-14T14:08:10.696Z,20.48
2022-11-14T14:10:56.406Z,16.00
2022-11-14T14:13:43.751Z,19.10
2022-11-14T14:16:36.688Z,19.40
2022-11-14T14:19:03.905Z,18.92
2022-11-14T14:21:45.362Z,19.40
2022-11-14T14:24:35.063Z,17.00
2022-11-14T14:27:29.647Z,17.98
2022-11-14T14:30:16.103Z,18.42
2022-11-14T14:32:43.637Z,18.63
2022-11-14T14:35:28.952Z,18.67
2022-11-14T14:37:57.299Z,20.52
2022-11-14T14:40:36.093Z,19.55
2022-11-14T14:43:06.568Z,19.70
2022-11-14T14:45:49.198Z,21.50
2022-11-14T14:48:23.765Z,21.38
2022-11-14T14:50:54.594Z,17.08
2022-11-14T14:53:31.094Z,20.35
2022-11-14T14:56:03.755Z,22.00
2022-11-14T14:58:33.717Z,21.35
2022-11-14T15:01:06.807Z,21.08
2022-11-14T15:03:38.857Z,21.65
2022-11-14T15:06:18.272Z,19.45
2022-11-14T15:08:45.856Z,21.48
2022-11-14T15:11:14.621Z,20.52
2022-11-14T15:13:43.386Z,21.05
2022-11-14T15:16:11.389Z,21.67
2022-11-14T15:18:38.529Z,21.13
2022-11-14T15:21:17.553Z,22.08
2022-11-14T15:23:44.618Z,23.25
2022-11-14T15:26:20.429Z,21.05
2022-11-14T15:28:47.200Z,21.42
2022-11-14T15:31:20.329Z,19.65
2022-11-14T15:34:02.189Z,22.05
2022-11-14T15:36:29.356Z,20.98
2022-11-14T15:39:05.963Z,21.30
2022-11-14T15:41:35.558Z,21.10
2022-11-14T15:44:02.474Z,21.88
2022-11-14T15:46:41.615Z,21.80
2022-11-14T15:49:20.630Z,23.67
2022-11-14T15:51:57.924Z,20.50
2022-11-14T15:54:35.488Z,19.98
2022-11-14T15:57:12.217Z,19.92
2022-11-14T15:59:39.256Z,22.30
2022-11-14T16:02:21.170Z,22.13
2022-11-14T16:04:49.953Z,20.38
2022-11-14T16:07:18.143Z,22.52
2022-11-14T16:09:45.561Z,22.73
2022-11-14T16:12:12.539Z,22.90
2022-11-14T16:14:39.652Z,23.27
2022-11-14T16:17:06.586Z,24.42
2022-11-14T16:19:33.567Z,23.45
2022-11-14T16:22:02.998Z,25.80
2022-11-14T16:24:34.432Z,24.15
2022-11-14T16:27:02.186Z,23.65
2022-11-14T16:29:29.023Z,24.20
2022-11-14T16:31:56.098Z,23.65
2022-11-14T16:34:25.652Z,22.48
2022-11-14T16:37:01.650Z,23.30
2022-11-14T16:39:29.407Z,18.60
2022-11-14T16:42:02.388Z,23.52
2022-11-14T16:44:29.568Z,24.83
2022-11-14T16:46:56.641Z,24.42
2022-11-14T16:49:23.676Z,21.33
2022-11-14T16:51:52.150Z,24.70
2022-11-14T16:54:20.476Z,25.35
2022-11-14T16:56:48.768Z,23.85
2022-11-14T16:59:16.013Z,22.63
2022-11-14T17:01:43.348Z,24.83
2022-11-14T17:04:10.713Z,25.13
2022-11-14T17:06:37.603Z,27.95
2022-11-14T17:09:04.375Z,27.27
2022-11-14T17:11:31.924Z,28.15
2022-11-14T17:13:58.845Z,32.75
2022-11-14T17:16:28.843Z,36.13
2022-11-14T17:18:56.039Z,33.80
2022-11-14T17:21:23.867Z,23.63
2022-11-14T17:24:00.392Z,29.20
2022-11-14T17:26:28.171Z,27.42
2022-11-14T17:28:55.930Z,25.52
2022-11-14T17:31:23.185Z,27.55
2022-11-14T17:33:53.275Z,29.67
2022-11-14T17:36:21.491Z,29.80
2022-11-14T17:38:48.849Z,25.65
2022-11-14T17:41:15.818Z,29.17
2022-11-14T17:43:42.856Z,26.77
2022-11-14T17:46:16.033Z,27.65
2022-11-14T17:48:47.427Z,25.25
2022-11-14T17:51:16.606Z,31.15
2022-11-14T17:53:44.489Z,30.38
2022-11-14T17:56:16.532Z,28.10
2022-11-14T17:58:44.509Z,27.15
2022-11-14T18:01:13.076Z,26.23
2022-11-14T18:03:39.963Z,25.80
2022-11-14T18:06:14.436Z,25.48
2022-11-14T18:08:44.407Z,25.77
2022-11-14T18:11:12.982Z,24.67
2022-11-14T18:13:40.913Z,23.20
2022-11-14T18:16:19.396Z,23.15
2022-11-14T18:18:46.827Z,22.73
2022-11-14T18:21:18.855Z,23.27
2022-11-14T18:23:54.701Z,21.63
2022-11-14T18:26:27.076Z,22.83
2022-11-14T18:28:57.829Z,22.13
2022-11-14T18:31:25.139Z,24.25
2022-11-14T18:33:52.266Z,28.33
2022-11-14T18:36:19.897Z,25.55
2022-11-14T18:38:47.057Z,22.55
2022-11-14T18:41:18.963Z,22.13
2022-11-14T18:43:45.962Z,22.67
2022-11-14T18:46:17.519Z,20.45
2022-11-14T18:48:47.597Z,22.65
2022-11-14T18:51:18.402Z,22.13
2022-11-14T18:53:45.389Z,22.73
2022-11-14T18:56:14.822Z,22.30
2022-11-14T18:58:43.317Z,24.50
2022-11-14T19:01:16.392Z,24.20
2022-11-14T19:03:43.170Z,24.73
2022-11-14T19:06:13.016Z,23.42
2022-11-14T19:08:41.107Z,23.30
2022-11-14T19:11:33.984Z,25.98
2022-11-14T19:14:02.275Z,23.58
2022-11-14T19:16:29.200Z,25.67
2022-11-14T19:18:56.344Z,27.20
2022-11-14T19:21:23.174Z,26.15
2022-11-14T19:23:54.738Z,27.17
2022-11-14T19:26:24.559Z,25.95
2022-11-14T19:28:51.968Z,27.17
2022-11-14T19:31:20.707Z,27.60
2022-11-14T19:33:47.994Z,27.20
2022-11-14T19:36:45.224Z,24.98
2022-11-14T19:39:09.089Z,27.00
2022-11-14T19:41:36.466Z,26.20
2022-11-14T19:44:03.605Z,26.23
2022-11-14T19:46:30.506Z,28.33
2022-11-14T19:49:01.498Z,29.15
2022-11-14T19:51:30.055Z,29.55
2022-11-14T19:53:58.380Z,29.42
2022-11-14T19:56:25.989Z,31.58
2022-11-14T19:58:56.454Z,29.92
2022-11-14T20:01:26.585Z,29.38
2022-11-14T20:03:56.354Z,28.67
2022-11-14T20:06:35.333Z,29.08
2022-11-14T20:09:06.921Z,29.17
2022-11-14T20:11:34.279Z,29.38
2022-11-14T20:14:02.621Z,29.52
2022-11-14T20:16:32.301Z,32.83
2022-11-14T20:19:01.635Z,30.17
2022-11-14T20:21:31.050Z,29.08
2022-11-14T20:23:58.115Z,29.02
2022-11-14T20:26:25.694Z,28.67
2022-11-14T20:28:53.980Z,31.13
2022-11-14T20:31:26.662Z,28.35
2022-11-14T20:33:54.603Z,28.75
2022-11-14T20:36:24.143Z,29.95
2022-11-14T20:38:52.436Z,27.80
2022-11-14T20:41:20.825Z,26.70
2022-11-14T20:43:48.168Z,26.85
2022-11-14T20:46:20.412Z,28.90
2022-11-14T20:48:48.523Z,28.17
2022-11-14T20:51:21.018Z,28.30
2022-11-14T20:53:52.472Z,27.35
2022-11-14T20:56:20.407Z,26.92
2022-11-14T20:58:49.103Z,27.95
2022-11-14T21:01:16.616Z,29.63
2022-11-14T21:03:43.896Z,29.60
2022-11-14T21:06:14.611Z,32.45
2022-11-14T21:08:42.583Z,34.20
2022-11-14T21:11:16.068Z,28.60
2022-11-14T21:13:59.181Z,27.65
2022-11-14T21:16:39.095Z,26.00
2022-11-14T21:19:07.467Z,28.20
2022-11-14T21:21:36.295Z,38.90
2022-11-14T21:24:03.667Z,33.20
2022-11-14T21:26:33.292Z,28.48
2022-11-14T21:29:04.140Z,26.27
2022-11-14T21:31:45.056Z,25.13
2022-11-14T21:34:15.116Z,26.90
2022-11-14T21:36:45.558Z,24.88
2022-11-14T21:39:15.021Z,23.48
2022-11-14T21:41:43.023Z,26.00
2022-11-14T21:44:13.120Z,24.02
2022-11-14T21:46:40.917Z,24.70
2022-11-14T21:49:08.190Z,24.33
2022-11-14T21:51:35.966Z,24.63
2022-11-14T21:54:03.265Z,24.77
2022-11-14T21:56:32.271Z,23.50
2022-11-14T21:59:13.246Z,24.15
2022-11-14T22:02:05.293Z,25.45
2022-11-14T22:04:40.094Z,24.63
2022-11-14T22:07:09.376Z,24.00
2022-11-14T22:09:43.958Z,25.67
2022-11-14T22:12:25.954Z,18.73
2022-11-14T22:15:02.478Z,21.55
2022-11-14T22:17:37.529Z,25.02
2022-11-14T22:20:09.726Z,21.65
2022-11-14T22:22:42.753Z,23.67
2022-11-14T22:25:10.719Z,22.65
2022-11-14T22:27:39.748Z,22.33
2022-11-14T22:30:12.988Z,21.38
2022-11-14T22:32:44.003Z,17.88
2022-11-14T22:35:14.077Z,21.70
2022-11-14T22:37:44.530Z,22.83
2022-11-14T22:40:12.426Z,19.35
2022-11-14T22:42:51.822Z,17.35
2022-11-14T22:45:32.812Z,21.17
2022-11-14T22:48:04.053Z,21.77
2022-11-14T22:50:32.460Z,20.67
2022-11-14T22:53:09.801Z,20.58
2022-11-14T22:55:50.344Z,19.25
2022-11-14T22:58:18.080Z,20.52
2022-11-14T23:00:49.873Z,21.23
2022-11-14T23:03:24.367Z,20.65
2022-11-14T23:05:51.830Z,15.68
2022-11-14T23:08:29.672Z,21.25
2022-11-14T23:11:09.043Z,20.33
2022-11-14T23:14:02.154Z,20.83
2022-11-14T23:16:31.850Z,20.70
2022-11-14T23:19:01.376Z,20.60
2022-11-14T23:21:31.515Z,20.58
2022-11-14T23:24:02.145Z,20.38
2022-11-14T23:26:30.584Z,18.65
2022-11-14T23:28:57.835Z,19.67
2022-11-14T23:31:25.219Z,18.95
2022-11-14T23:33:54.933Z,17.83
2022-11-14T23:36:22.396Z,19.15
2022-11-14T23:38:51.749Z,19.38
2022-11-14T23:41:25.297Z,17.27
2022-11-14T23:43:52.448Z,18.20
2022-11-14T23:46:19.558Z,17.77
2022-11-14T23:48:46.564Z,17.10
2022-11-14T23:51:14.012Z,17.38
2022-11-14T23:53:41.562Z,18.90
2022-11-14T23:56:12.046Z,18.92
2022-11-14T23:58:38.988Z,18.48
